Time;durP1;ratioP1;P1;durP2;ratioP2;P2;SDS_P1;SDS_P2;PMS_P1;PMS_P2;Temp;Humidity;BMP_temperature;BMP_pressure;BME280_temperature;BME280_humidity;BME280_pressure;Samples;Min_cycle;Max_cycle;Signal;HPM_P1;HPM_P2
2021/06/29 00:01:08;;;;;;;6.45;2.83;;;35.70;30.70;;;;;;4319288;33;20157;-37
2021/06/29 00:03:35;;;;;;;3.25;2.37;;;35.70;30.70;;;;;;4315014;33;20176;-37
2021/06/29 00:06:01;;;;;;;5.65;2.62;;;35.70;30.70;;;;;;4327275;33;20198;-37
2021/06/29 00:08:28;;;;;;;10.82;2.85;;;35.70;30.70;;;;;;4315189;33;20063;-37
2021/06/29 00:10:54;;;;;;;5.07;2.92;;;35.70;30.80;;;;;;4326648;33;20655;-37
2021/06/29 00:13:21;;;;;;;8.75;2.25;;;35.70;30.70;;;;;;4341822;33;20119;-37
2021/06/29 00:15:48;;;;;;;5.85;3.67;;;35.80;30.70;;;;;;4342545;33;20071;-37
2021/06/29 00:18:15;;;;;;;9.88;3.00;;;35.90;30.80;;;;;;4329152;33;20094;-37
2021/06/29 00:20:42;;;;;;;10.05;2.95;;;35.90;30.70;;;;;;4353342;32;20167;-37
2021/06/29 00:23:08;;;;;;;3.37;2.60;;;35.90;31.10;;;;;;4356772;32;20063;-37
2021/06/29 00:25:34;;;;;;;6.07;2.80;;;35.80;31.20;;;;;;4357065;32;20083;-37
2021/06/29 00:28:01;;;;;;;6.62;3.22;;;35.70;31.40;;;;;;4358773;32;20127;-37
2021/06/29 00:30:27;;;;;;;2.75;2.53;;;35.60;32.30;;;;;;4358419;32;20069;-36
2021/06/29 00:32:54;;;;;;;8.75;3.17;;;35.40;32.90;;;;;;4358556;32;20491;-36
2021/06/29 00:35:20;;;;;;;8.90;3.65;;;35.20;34.10;;;;;;4358688;32;20063;-37
2021/06/29 00:37:46;;;;;;;6.62;3.03;;;35.00;35.30;;;;;;4358160;32;20139;-37
2021/06/29 00:40:13;;;;;;;9.82;3.40;;;34.80;35.20;;;;;;4358172;32;20047;-37
2021/06/29 00:42:41;;;;;;;6.22;3.33;;;34.70;35.70;;;;;;4358351;32;20069;-37
2021/06/29 00:45:08;;;;;;;4.28;3.03;;;34.70;35.70;;;;;;4357039;32;20047;-37
2021/06/29 00:47:35;;;;;;;6.05;2.80;;;34.70;35.90;;;;;;4358381;32;20086;-37
2021/06/29 00:50:02;;;;;;;5.93;2.37;;;34.80;36.60;;;;;;4370192;32;20088;-37
2021/06/29 00:52:29;;;;;;;6.85;3.47;;;34.80;34.60;;;;;;4370884;32;20532;-46
2021/06/29 00:54:55;;;;;;;8.13;3.53;;;34.90;34.60;;;;;;4358054;32;20221;-37
2021/06/29 00:57:22;;;;;;;7.78;2.60;;;35.00;34.70;;;;;;4370696;32;20169;-46
2021/06/29 00:59:48;;;;;;;6.03;3.12;;;35.00;34.60;;;;;;4370287;32;20139;-37
2021/06/29 01:02:15;;;;;;;7.47;3.20;;;35.10;34.40;;;;;;4370305;32;20599;-37
2021/06/29 01:04:42;;;;;;;5.93;3.12;;;35.00;33.50;;;;;;4342560;32;20082;-37
2021/06/29 01:07:13;;;;;;;7.35;2.78;;;35.10;33.30;;;;;;4316182;33;20074;-37
2021/06/29 01:09:40;;;;;;;3.80;2.65;;;35.10;33.30;;;;;;4344369;32;20074;-36
2021/06/29 01:12:08;;;;;;;7.50;2.40;;;35.10;33.10;;;;;;4342915;32;20074;-36
2021/06/29 01:14:34;;;;;;;6.45;3.85;;;35.20;33.20;;;;;;4327787;33;20522;-36
2021/06/29 01:17:04;;;;;;;6.10;3.12;;;35.20;33.10;;;;;;4328621;32;20125;-37
2021/06/29 01:19:42;;;;;;;9.57;3.22;;;35.30;33.00;;;;;;4345296;33;20554;-36
2021/06/29 01:22:09;;;;;;;5.35;2.70;;;35.40;33.00;;;;;;4331491;33;20082;-37
2021/06/29 01:24:36;;;;;;;3.95;2.60;;;35.40;33.00;;;;;;4330658;33;20183;-37
2021/06/29 01:27:23;;;;;;;5.32;3.50;;;35.40;32.80;;;;;;4330590;33;20063;-37
2021/06/29 01:32:22;;;;;;;6.82;2.70;;;35.20;32.80;;;;;;4330624;33;20632;-38
2021/06/29 01:34:48;;;;;;;6.50;2.40;;;35.10;33.00;;;;;;4318419;33;20099;-38
2021/06/29 01:37:17;;;;;;;3.20;2.87;;;35.00;33.30;;;;;;4330454;33;20107;-37
2021/06/29 01:39:57;;;;;;;9.52;4.28;;;35.00;33.60;;;;;;4306399;33;20069;-37
2021/06/29 01:42:25;;;;;;;6.28;2.50;;;35.00;33.60;;;;;;4340051;33;20058;-38
2021/06/29 01:44:51;;;;;;;2.40;2.20;;;35.10;33.50;;;;;;4363344;32;20077;-39
2021/06/29 01:47:55;;;;;;;5.00;2.33;;;35.30;33.20;;;;;;4377607;32;20105;-39
2021/06/29 01:50:15;;;;;;;10.65;4.45;;;35.50;32.80;;;;;;4388417;32;20072;-39
2021/06/29 01:52:41;;;;;;;4.60;2.08;;;35.80;32.30;;;;;;4390014;32;20084;-38
2021/06/29 01:55:09;;;;;;;8.63;2.58;;;36.10;32.00;;;;;;4390407;32;20081;-39
2021/06/29 01:57:38;;;;;;;8.25;3.08;;;36.40;31.80;;;;;;4377774;32;20062;-39
2021/06/29 02:00:09;;;;;;;9.80;3.50;;;36.60;31.50;;;;;;4390938;32;20234;-39
2021/06/29 02:02:35;;;;;;;6.68;2.05;;;36.80;31.50;;;;;;4391021;32;20069;-39
2021/06/29 02:05:03;;;;;;;5.65;2.53;;;37.00;31.10;;;;;;4377859;32;20074;-38
2021/06/29 02:07:30;;;;;;;29.48;26.35;;;37.20;30.80;;;;;;4377921;32;20066;-37
2021/06/29 02:09:56;;;;;;;13.45;3.62;;;37.30;30.70;;;;;;4389815;32;20620;-38
2021/06/29 02:12:22;;;;;;;8.00;2.58;;;37.40;30.70;;;;;;4389846;32;20084;-38
2021/06/29 02:14:49;;;;;;;3.83;2.53;;;37.50;30.70;;;;;;4390322;32;20090;-39
2021/06/29 02:17:15;;;;;;;3.50;2.22;;;37.50;30.70;;;;;;4377083;32;20501;-37
2021/06/29 02:19:42;;;;;;;6.85;2.50;;;37.50;30.70;;;;;;4390146;32;20069;-39
2021/06/29 02:22:08;;;;;;;9.23;3.08;;;37.50;30.70;;;;;;4389837;32;20169;-38
2021/06/29 02:24:34;;;;;;;6.03;2.22;;;37.60;30.80;;;;;;4389790;32;20321;-38
2021/06/29 02:27:01;;;;;;;5.32;2.47;;;37.70;30.70;;;;;;4389832;32;20078;-37
2021/06/29 02:29:28;;;;;;;6.60;2.92;;;37.80;30.60;;;;;;4385000;32;20170;-39
2021/06/29 02:31:54;;;;;;;10.25;3.60;;;37.90;30.50;;;;;;4375110;32;20066;-38
2021/06/29 02:34:20;;;;;;;4.72;2.53;;;37.90;30.50;;;;;;4374851;32;20577;-38
2021/06/29 02:36:47;;;;;;;6.93;3.00;;;37.90;30.30;;;;;;4374683;32;20062;-37
2021/06/29 02:39:13;;;;;;;5.30;2.87;;;37.70;30.30;;;;;;4374946;32;20538;-38
2021/06/29 02:41:40;;;;;;;7.28;2.65;;;37.40;30.70;;;;;;4374878;32;20100;-38
2021/06/29 02:44:06;;;;;;;4.15;3.05;;;37.10;31.20;;;;;;4374720;32;20082;-39
2021/06/29 02:46:35;;;;;;;7.00;2.42;;;36.80;31.60;;;;;;4374817;32;20073;-37
2021/06/29 02:49:01;;;;;;;11.63;3.42;;;36.60;31.80;;;;;;4388130;32;20054;-37
2021/06/29 02:51:27;;;;;;;4.55;2.65;;;36.30;32.30;;;;;;4390103;32;20089;-37
2021/06/29 02:53:54;;;;;;;6.57;3.00;;;36.10;32.60;;;;;;4388151;32;20066;-38
2021/06/29 02:56:39;;;;;;;9.68;3.22;;;36.00;32.90;;;;;;4388165;32;20085;-38
2021/06/29 02:59:10;;;;;;;7.75;3.22;;;36.00;33.20;;;;;;4389753;32;20066;-37
2021/06/29 03:01:37;;;;;;;7.68;2.60;;;36.00;33.00;;;;;;4389928;32;20097;-39
2021/06/29 03:04:04;;;;;;;6.37;3.25;;;36.20;32.90;;;;;;4389478;32;20558;-37
2021/06/29 03:06:30;;;;;;;5.55;3.00;;;36.30;32.60;;;;;;4387943;32;20062;-38
2021/06/29 03:08:57;;;;;;;6.05;2.80;;;36.50;32.60;;;;;;4389359;32;20082;-37
2021/06/29 03:11:23;;;;;;;10.85;4.07;;;36.70;32.20;;;;;;4389569;32;20099;-39
2021/06/29 03:13:49;;;;;;;11.90;3.87;;;36.90;31.70;;;;;;4389632;32;20056;-39
2021/06/29 03:16:16;;;;;;;8.93;2.92;;;37.20;31.60;;;;;;4389594;32;20074;-37
2021/06/29 03:18:42;;;;;;;8.48;2.47;;;37.50;31.50;;;;;;4389565;32;20049;-39
2021/06/29 03:21:09;;;;;;;6.12;3.05;;;37.70;31.20;;;;;;4356377;32;20161;-38
2021/06/29 03:23:35;;;;;;;8.73;2.47;;;38.00;30.80;;;;;;4356838;32;20652;-39
2021/06/29 03:26:03;;;;;;;4.00;2.17;;;38.30;30.50;;;;;;4356898;32;20212;-39
2021/06/29 03:28:29;;;;;;;9.65;2.90;;;38.50;30.00;;;;;;4356990;32;20070;-39
2021/06/29 03:30:55;;;;;;;8.88;3.08;;;38.80;30.00;;;;;;4356451;32;20106;-38
2021/06/29 03:33:22;;;;;;;4.65;2.75;;;39.00;29.80;;;;;;4356300;32;20534;-38
2021/06/29 03:35:49;;;;;;;5.80;2.87;;;39.20;29.60;;;;;;4356702;32;20070;-38
2021/06/29 03:38:15;;;;;;;9.23;2.67;;;39.40;29.40;;;;;;4344617;32;20105;-38
2021/06/29 03:40:41;;;;;;;3.95;2.30;;;39.50;29.30;;;;;;4343890;32;20065;-39
2021/06/29 03:43:08;;;;;;;5.93;2.42;;;39.60;29.20;;;;;;4344255;32;20651;-38
2021/06/29 03:45:34;;;;;;;8.02;2.12;;;39.70;29.20;;;;;;4341339;33;20094;-37
2021/06/29 03:48:01;;;;;;;6.30;2.30;;;39.90;29.30;;;;;;4341936;33;20071;-39
2021/06/29 03:50:27;;;;;;;5.65;2.65;;;40.20;28.90;;;;;;4329782;33;20482;-39
2021/06/29 03:52:54;;;;;;;5.87;1.90;;;40.50;29.00;;;;;;4353171;32;20093;-38
2021/06/29 03:55:20;;;;;;;6.07;2.72;;;40.80;28.70;;;;;;4359181;32;20182;-38
2021/06/29 03:57:47;;;;;;;3.62;1.87;;;41.00;28.50;;;;;;4371032;32;20493;-39
2021/06/29 04:00:14;;;;;;;9.70;2.90;;;41.20;28.30;;;;;;4370902;32;20092;-38
2021/06/29 04:02:41;;;;;;;4.10;2.12;;;41.50;28.20;;;;;;4358764;32;20146;-38
2021/06/29 04:05:09;;;;;;;6.47;2.30;;;41.70;28.10;;;;;;4370944;32;20105;-38
2021/06/29 04:07:35;;;;;;;7.30;2.40;;;41.80;27.80;;;;;;4371461;32;20062;-38
2021/06/29 04:10:06;;;;;;;7.57;2.55;;;41.80;27.60;;;;;;4377419;32;20088;-37
2021/06/29 04:12:32;;;;;;;7.22;2.08;;;42.00;27.60;;;;;;4386516;32;20458;-38
2021/06/29 04:14:59;;;;;;;7.07;2.37;;;42.00;27.40;;;;;;4385836;32;20637;-38
2021/06/29 04:17:25;;;;;;;5.37;1.83;;;42.00;27.40;;;;;;4386110;32;20093;-38
2021/06/29 04:19:52;;;;;;;4.45;1.95;;;41.90;27.40;;;;;;4385868;32;20159;-38
2021/06/29 04:22:18;;;;;;;6.97;2.35;;;41.80;27.40;;;;;;4374332;32;20069;-39
2021/06/29 04:24:44;;;;;;;9.15;2.42;;;41.60;27.70;;;;;;4374380;32;20189;-44
2021/06/29 04:27:11;;;;;;;11.43;2.55;;;41.50;27.80;;;;;;4388293;32;20168;-37
2021/06/29 04:29:37;;;;;;;15.35;13.77;;;41.40;28.00;;;;;;4388411;32;20081;-37
2021/06/29 04:32:04;;;;;;;5.28;1.85;;;41.50;28.20;;;;;;4388224;32;20068;-38
2021/06/29 04:34:32;;;;;;;8.73;2.20;;;41.70;27.90;;;;;;4399420;32;20150;-37
2021/06/29 04:36:59;;;;;;;6.82;1.95;;;41.70;27.80;;;;;;4400588;32;20552;-37
2021/06/29 04:39:25;;;;;;;3.53;1.80;;;41.90;27.30;;;;;;4400808;32;20087;-37
2021/06/29 04:41:51;;;;;;;6.12;2.03;;;42.10;27.00;;;;;;4370410;32;20560;-38
2021/06/29 04:44:18;;;;;;;6.53;1.98;;;42.30;26.80;;;;;;4370169;32;20102;-37
2021/06/29 04:46:49;;;;;;;5.43;2.47;;;42.60;26.50;;;;;;4370755;32;20081;-39
2021/06/29 04:49:16;;;;;;;2.53;1.83;;;42.80;26.30;;;;;;4355902;32;20067;-38
2021/06/29 04:51:43;;;;;;;6.65;2.28;;;43.10;26.50;;;;;;4340775;32;20067;-39
2021/06/29 04:54:11;;;;;;;7.78;2.45;;;43.20;26.40;;;;;;4340111;32;20083;-38
2021/06/29 04:56:37;;;;;;;7.43;3.28;;;43.20;26.20;;;;;;4340735;32;20495;-38
2021/06/29 04:59:04;;;;;;;5.25;2.00;;;43.30;26.30;;;;;;4340757;33;20542;-38
2021/06/29 05:01:30;;;;;;;7.18;2.12;;;43.40;26.10;;;;;;4328564;33;20491;-38
2021/06/29 05:03:57;;;;;;;5.45;2.05;;;43.30;26.30;;;;;;4328362;33;20495;-38
2021/06/29 05:06:23;;;;;;;12.68;2.22;;;43.30;27.10;;;;;;4340622;32;20066;-37
2021/06/29 05:08:50;;;;;;;9.25;4.07;;;43.10;26.50;;;;;;4340458;32;20097;-38
2021/06/29 05:11:16;;;;;;;12.85;2.85;;;43.00;26.50;;;;;;4354010;32;20078;-39
2021/06/29 05:13:43;;;;;;;13.35;2.80;;;42.80;26.40;;;;;;4355516;32;20147;-38
2021/06/29 05:16:09;;;;;;;7.18;2.95;;;42.60;26.60;;;;;;4343116;32;20160;-38
2021/06/29 05:18:36;;;;;;;8.13;2.58;;;42.30;26.50;;;;;;4358809;32;20050;-39
2021/06/29 05:21:02;;;;;;;7.82;2.30;;;42.00;26.60;;;;;;4357882;32;20066;-39
2021/06/29 05:23:29;;;;;;;8.20;2.67;;;41.80;27.00;;;;;;4359773;32;20078;-39
2021/06/29 05:25:55;;;;;;;8.63;2.25;;;41.50;27.10;;;;;;4356139;32;20054;-39
2021/06/29 05:28:25;;;;;;;5.72;2.42;;;41.40;27.20;;;;;;4358108;32;20062;-39
2021/06/29 05:30:52;;;;;;;6.82;2.35;;;41.30;27.50;;;;;;4356304;32;20462;-38
2021/06/29 05:33:18;;;;;;;4.55;2.58;;;41.30;27.70;;;;;;4357795;32;20538;-39
2021/06/29 05:35:45;;;;;;;6.50;2.83;;;41.30;27.70;;;;;;4342478;32;20529;-38
2021/06/29 05:38:12;;;;;;;8.23;2.58;;;41.30;27.60;;;;;;4355028;32;20062;-39
2021/06/29 05:40:38;;;;;;;5.32;2.47;;;41.30;27.80;;;;;;4355412;32;20074;-38
2021/06/29 05:43:05;;;;;;;6.75;2.60;;;41.30;27.80;;;;;;4355178;32;20156;-40
2021/06/29 05:45:31;;;;;;;7.10;1.85;;;41.20;27.60;;;;;;4355219;32;20529;-38
2021/06/29 05:47:58;;;;;;;5.45;2.50;;;41.30;27.50;;;;;;4361258;32;20626;-38
2021/06/29 05:50:25;;;;;;;5.82;2.15;;;41.30;27.50;;;;;;4369956;32;20063;-38
2021/06/29 05:52:51;;;;;;;7.07;2.28;;;41.60;27.30;;;;;;4369927;32;20530;-43
2021/06/29 05:55:18;;;;;;;6.62;2.58;;;41.70;27.20;;;;;;4370374;32;20218;-37
2021/06/29 05:57:44;;;;;;;6.82;2.53;;;41.90;27.20;;;;;;4370065;32;20085;-38
2021/06/29 06:00:14;;;;;;;6.72;2.72;;;42.00;27.10;;;;;;4357438;32;20070;-40
2021/06/29 06:02:40;;;;;;;4.97;2.22;;;42.20;26.90;;;;;;4370067;32;20082;-38
2021/06/29 06:05:08;;;;;;;6.35;2.42;;;42.40;27.00;;;;;;4372194;32;20556;-39
2021/06/29 06:07:35;;;;;;;3.87;2.17;;;42.50;26.60;;;;;;4372535;32;20053;-38
2021/06/29 06:10:03;;;;;;;5.95;2.28;;;42.80;26.60;;;;;;4372440;32;20093;-39
2021/06/29 06:12:29;;;;;;;6.37;2.42;;;43.00;26.70;;;;;;4370217;32;20073;-38
2021/06/29 06:14:56;;;;;;;7.75;2.17;;;43.30;26.30;;;;;;4360273;32;20507;-39
2021/06/29 06:17:23;;;;;;;4.97;2.47;;;43.50;26.00;;;;;;4360110;32;20066;-38
2021/06/29 06:19:49;;;;;;;8.50;3.03;;;43.70;25.80;;;;;;4359751;32;20482;-38
2021/06/29 06:22:16;;;;;;;6.93;2.60;;;43.90;25.90;;;;;;4359861;32;20504;-38
2021/06/29 06:24:42;;;;;;;7.32;2.50;;;44.00;25.80;;;;;;4358637;32;20066;-39
2021/06/29 06:27:12;;;;;;;4.60;2.58;;;44.10;26.30;;;;;;4359889;32;20086;-39
2021/06/29 06:29:39;;;;;;;6.68;2.20;;;44.20;25.60;;;;;;4358414;32;20522;-38
2021/06/29 06:32:06;;;;;;;5.30;2.47;;;44.30;25.60;;;;;;4359663;32;20071;-38
2021/06/29 06:34:33;;;;;;;3.60;2.22;;;44.40;25.60;;;;;;4359805;32;20062;-38
2021/06/29 06:36:59;;;;;;;8.43;2.80;;;44.40;25.30;;;;;;4359973;32;20122;-38
2021/06/29 06:39:26;;;;;;;6.62;2.92;;;44.40;25.50;;;;;;4357998;32;20173;-38
2021/06/29 06:41:52;;;;;;;5.30;2.05;;;44.40;25.50;;;;;;4358356;32;20063;-38
2021/06/29 06:44:18;;;;;;;4.62;1.92;;;44.50;25.50;;;;;;4358188;32;20097;-38
2021/06/29 06:46:45;;;;;;;7.70;2.80;;;44.50;25.40;;;;;;4359595;32;20564;-39
2021/06/29 06:49:11;;;;;;;5.72;3.15;;;44.60;25.60;;;;;;4374035;32;20089;-39
2021/06/29 06:51:38;;;;;;;3.12;2.17;;;44.60;25.50;;;;;;4360896;32;20074;-38
2021/06/29 06:54:05;;;;;;;6.03;2.17;;;44.60;25.50;;;;;;4373201;32;20069;-38
2021/06/29 06:56:31;;;;;;;11.50;2.47;;;44.50;25.60;;;;;;4372648;32;20077;-38
2021/06/29 06:58:58;;;;;;;7.72;2.67;;;44.40;25.90;;;;;;4373215;32;20086;-39
2021/06/29 07:01:24;;;;;;;6.37;2.85;;;44.30;25.90;;;;;;4373118;32;20146;-38
2021/06/29 07:03:51;;;;;;;6.22;2.25;;;44.20;26.00;;;;;;4374392;32;20472;-38
2021/06/29 07:06:17;;;;;;;2.95;2.10;;;44.20;26.10;;;;;;4374182;32;20579;-38
2021/06/29 07:08:44;;;;;;;6.45;2.95;;;44.10;26.00;;;;;;4372968;32;20126;-38
2021/06/29 07:11:10;;;;;;;3.58;2.45;;;44.00;26.40;;;;;;4401297;32;20102;-38
2021/06/29 07:13:37;;;;;;;5.22;1.80;;;44.10;26.40;;;;;;4404665;32;20075;-38
2021/06/29 07:16:04;;;;;;;5.50;2.78;;;44.20;25.90;;;;;;4377147;32;20543;-39
2021/06/29 07:18:31;;;;;;;9.65;3.05;;;44.30;26.10;;;;;;4404580;32;20081;-39
2021/06/29 07:20:57;;;;;;;9.70;1.80;;;44.40;26.20;;;;;;4404580;32;20050;-39
2021/06/29 07:23:24;;;;;;;8.85;3.35;;;44.60;26.00;;;;;;4390658;32;20161;-39
2021/06/29 07:25:50;;;;;;;7.00;2.08;;;44.50;26.00;;;;;;4390032;32;20088;-38
2021/06/29 07:28:17;;;;;;;5.15;2.03;;;44.50;26.20;;;;;;4404371;32;20065;-39
2021/06/29 07:30:43;;;;;;;9.75;2.33;;;44.40;26.00;;;;;;4404354;32;20506;-39
2021/06/29 07:33:10;;;;;;;5.62;2.12;;;44.30;26.10;;;;;;4373618;32;20579;-38
2021/06/29 07:35:36;;;;;;;6.32;1.73;;;44.20;25.90;;;;;;4343757;32;20171;-38
2021/06/29 07:38:04;;;;;;;5.82;2.03;;;44.10;25.70;;;;;;4356439;32;20070;-38
2021/06/29 07:40:30;;;;;;;4.03;2.22;;;44.00;26.00;;;;;;4356379;32;20117;-39
2021/06/29 07:42:57;;;;;;;4.28;1.70;;;43.90;25.90;;;;;;4356226;32;20604;-39
2021/06/29 07:45:27;;;;;;;6.07;1.70;;;44.00;25.80;;;;;;4356486;32;20531;-38
2021/06/29 07:47:55;;;;;;;9.82;1.48;;;44.10;25.80;;;;;;4338643;33;20059;-38
2021/06/29 07:50:22;;;;;;;6.85;1.48;;;44.30;25.40;;;;;;4341720;33;20082;-38
2021/06/29 07:52:48;;;;;;;4.75;1.50;;;44.50;25.50;;;;;;4341284;33;20070;-38
2021/06/29 07:55:15;;;;;;;5.03;2.33;;;44.70;25.10;;;;;;4297719;33;20187;-38
2021/06/29 07:57:41;;;;;;;4.75;1.30;;;44.90;24.80;;;;;;4297379;33;20122;-39
2021/06/29 08:00:09;;;;;;;4.97;1.50;;;45.00;24.50;;;;;;4296964;33;20525;-38
2021/06/29 08:02:36;;;;;;;4.82;1.50;;;45.20;24.70;;;;;;4297180;33;20468;-39
2021/06/29 08:05:03;;;;;;;6.80;1.67;;;45.30;24.50;;;;;;4297879;33;20156;-39
2021/06/29 08:07:29;;;;;;;10.68;1.75;;;45.40;24.40;;;;;;4336828;33;20840;-39
2021/06/29 08:09:57;;;;;;;4.45;1.75;;;45.50;24.60;;;;;;4328752;33;20102;-39
2021/06/29 08:12:26;;;;;;;3.10;1.77;;;45.50;24.50;;;;;;4341135;33;20487;-39
2021/06/29 08:14:52;;;;;;;6.20;2.25;;;45.50;24.50;;;;;;4341331;32;20151;-39
2021/06/29 08:17:19;;;;;;;7.03;2.42;;;45.50;24.50;;;;;;4341532;32;20127;-39
2021/06/29 08:19:47;;;;;;;11.05;2.72;;;45.50;24.60;;;;;;4328886;33;20062;-39
2021/06/29 08:22:14;;;;;;;5.68;1.90;;;45.40;24.70;;;;;;4341202;32;20557;-39
2021/06/29 08:24:40;;;;;;;11.70;2.50;;;45.30;24.90;;;;;;4329106;33;20090;-38
2021/06/29 08:27:09;;;;;;;2.47;1.62;;;45.10;25.20;;;;;;4325138;33;20082;-39
2021/06/29 08:29:35;;;;;;;10.55;3.17;;;45.00;25.10;;;;;;4326166;33;20102;-38
2021/06/29 08:32:02;;;;;;;9.80;1.98;;;44.90;25.30;;;;;;4326110;33;20074;-38
2021/06/29 08:34:29;;;;;;;3.53;1.92;;;44.80;25.40;;;;;;4326074;33;20289;-38
2021/06/29 08:36:55;;;;;;;4.70;2.12;;;44.70;25.30;;;;;;4326064;33;20529;-38
2021/06/29 08:39:22;;;;;;;5.90;1.80;;;44.70;25.20;;;;;;4325686;33;20075;-38
2021/06/29 08:41:48;;;;;;;7.37;1.65;;;44.80;25.20;;;;;;4326116;33;20109;-39
2021/06/29 08:44:15;;;;;;;4.65;1.70;;;44.90;25.00;;;;;;4331919;32;20166;-39
2021/06/29 08:46:43;;;;;;;2.40;1.58;;;45.00;25.00;;;;;;4343356;32;20111;-39
2021/06/29 08:49:09;;;;;;;4.00;2.62;;;45.10;24.80;;;;;;4341008;33;20103;-38
2021/06/29 08:51:37;;;;;;;7.18;1.83;;;45.10;24.40;;;;;;4349313;32;20211;-38
2021/06/29 08:54:04;;;;;;;5.65;1.33;;;45.30;24.30;;;;;;4374396;32;20087;-38
2021/06/29 08:56:32;;;;;;;6.80;1.98;;;45.40;24.00;;;;;;4387921;32;20477;-38
2021/06/29 08:58:59;;;;;;;7.57;1.70;;;45.70;24.00;;;;;;4387943;32;20093;-38
2021/06/29 09:01:30;;;;;;;2.95;1.35;;;45.90;24.00;;;;;;4388019;32;20157;-38
2021/06/29 09:03:57;;;;;;;3.67;1.52;;;46.20;23.60;;;;;;4387999;32;20161;-39
2021/06/29 09:06:49;;;;;;;7.10;1.15;;;46.50;23.10;;;;;;4387843;32;20057;-38
2021/06/29 09:09:27;;;;;;;4.07;1.10;;;46.70;23.10;;;;;;4384726;32;20080;-38
2021/06/29 09:11:55;;;;;;;4.47;1.20;;;47.00;22.90;;;;;;4387766;32;20049;-38
2021/06/29 09:14:31;;;;;;;4.18;1.50;;;47.20;22.80;;;;;;4387797;32;20514;-38
2021/06/29 09:17:19;;;;;;;3.22;1.60;;;47.50;22.60;;;;;;4387675;32;20465;-38
2021/06/29 09:19:46;;;;;;;3.33;1.62;;;47.70;22.80;;;;;;4387640;32;20228;-39
2021/06/29 09:22:45;;;;;;;4.28;1.40;;;47.80;22.50;;;;;;4387923;32;20185;-38
2021/06/29 09:25:29;;;;;;;6.43;2.45;;;48.10;22.60;;;;;;4325706;33;20585;-38
2021/06/29 09:27:57;;;;;;;7.22;2.05;;;48.20;22.60;;;;;;4302107;33;20144;-40
2021/06/29 09:30:34;;;;;;;5.87;3.55;;;48.10;22.80;;;;;;4325457;33;20078;-39
2021/06/29 09:33:12;;;;;;;2.22;1.37;;;48.10;23.10;;;;;;4313252;33;20498;-38
2021/06/29 09:35:40;;;;;;;3.12;1.77;;;48.00;23.20;;;;;;4325579;33;20530;-38
2021/06/29 09:38:08;;;;;;;3.35;1.50;;;47.90;23.20;;;;;;4325641;33;20097;-38
2021/06/29 09:40:35;;;;;;;4.80;1.83;;;47.60;23.20;;;;;;4328023;33;20157;-39
2021/06/29 09:43:12;;;;;;;3.58;1.70;;;47.30;23.40;;;;;;4328961;33;20164;-38
2021/06/29 09:45:47;;;;;;;2.53;1.50;;;47.10;23.60;;;;;;4328202;33;20562;-38
2021/06/29 09:48:27;;;;;;;3.08;1.77;;;46.90;23.60;;;;;;4336413;33;20115;-39
2021/06/29 09:50:58;;;;;;;6.37;2.12;;;46.60;23.90;;;;;;4343483;33;20047;-39
2021/06/29 09:53:31;;;;;;;4.10;1.90;;;46.40;24.00;;;;;;4343483;33;20129;-39
2021/06/29 09:56:00;;;;;;;6.22;2.25;;;46.40;24.10;;;;;;4343318;33;20526;-39
2021/06/29 09:58:29;;;;;;;10.98;2.75;;;46.30;24.20;;;;;;4342724;33;20070;-38
2021/06/29 10:00:57;;;;;;;5.68;1.87;;;46.00;24.50;;;;;;4353195;32;20602;-39
2021/06/29 10:03:31;;;;;;;5.37;2.60;;;45.90;24.50;;;;;;4345547;32;20078;-39
2021/06/29 10:06:21;;;;;;;5.20;2.33;;;45.80;24.60;;;;;;4357781;32;20235;-39
2021/06/29 10:08:50;;;;;;;12.68;2.60;;;45.80;24.60;;;;;;4347724;32;20566;-39
2021/06/29 10:11:27;;;;;;;6.47;2.80;;;46.20;24.60;;;;;;4345469;32;20155;-38
2021/06/29 10:14:03;;;;;;;5.07;2.70;;;46.40;24.60;;;;;;4346449;32;20087;-38
2021/06/29 10:16:42;;;;;;;6.45;2.75;;;46.70;24.50;;;;;;4345297;32;20538;-39
2021/06/29 10:21:42;;;;;;;7.82;2.90;;;46.90;24.30;;;;;;4357759;32;20067;-39
2021/06/29 10:24:10;;;;;;;8.73;3.03;;;46.90;24.40;;;;;;4315111;33;20087;-38
2021/06/29 10:26:39;;;;;;;4.05;2.33;;;47.00;24.10;;;;;;4315463;33;20468;-38
2021/06/29 10:29:13;;;;;;;5.50;1.95;;;47.30;24.00;;;;;;4327927;33;20085;-40
2021/06/29 10:32:03;;;;;;;6.95;2.87;;;47.50;23.90;;;;;;4333747;33;20070;-38
2021/06/29 10:34:30;;;;;;;11.43;4.43;;;47.70;23.80;;;;;;4357759;32;20166;-38
2021/06/29 10:36:58;;;;;;;13.40;3.05;;;47.80;23.90;;;;;;4360276;32;20509;-39
2021/06/29 10:39:30;;;;;;;9.55;3.92;;;47.80;24.10;;;;;;4372274;32;20132;-38
2021/06/29 10:42:06;;;;;;;11.60;3.00;;;47.80;24.10;;;;;;4372763;32;20090;-38
2021/06/29 10:44:38;;;;;;;5.68;2.70;;;47.60;24.10;;;;;;4359932;32;20091;-38
2021/06/29 10:47:21;;;;;;;8.90;2.55;;;47.40;24.30;;;;;;4326093;33;20067;-39
2021/06/29 10:49:49;;;;;;;11.98;3.30;;;47.10;24.50;;;;;;4301038;33;20083;-39
2021/06/29 10:52:27;;;;;;;8.15;2.85;;;46.80;24.60;;;;;;4312160;33;20080;-38
2021/06/29 10:55:02;;;;;;;9.60;2.60;;;46.70;24.70;;;;;;4312806;33;20083;-39
2021/06/29 10:57:52;;;;;;;11.18;2.90;;;46.80;25.30;;;;;;4301128;33;20052;-39
2021/06/29 11:00:22;;;;;;;8.20;2.85;;;46.80;25.60;;;;;;4312755;33;20224;-38
2021/06/29 11:03:08;;;;;;;5.97;2.40;;;46.70;25.50;;;;;;4327589;33;21058;-39
2021/06/29 11:05:40;;;;;;;5.55;2.55;;;46.70;25.60;;;;;;4342939;32;20142;-38
2021/06/29 11:08:27;;;;;;;9.15;3.05;;;46.50;25.70;;;;;;4357107;32;20073;-39
2021/06/29 11:10:55;;;;;;;6.00;2.80;;;46.40;26.00;;;;;;4357182;32;20203;-39
2021/06/29 11:13:45;;;;;;;11.05;3.53;;;46.20;26.20;;;;;;4357346;32;20082;-38
2021/06/29 11:16:11;;;;;;;11.65;3.17;;;45.80;27.10;;;;;;4357143;32;20069;-38
2021/06/29 11:18:40;;;;;;;8.38;3.30;;;45.30;27.30;;;;;;4356317;32;20058;-39
2021/06/29 11:21:33;;;;;;;8.07;4.28;;;44.80;27.70;;;;;;4356788;32;20073;-38
2021/06/29 11:24:00;;;;;;;7.70;3.70;;;44.40;27.80;;;;;;4356724;32;20081;-39
2021/06/29 11:26:27;;;;;;;9.80;4.95;;;44.10;28.40;;;;;;4373213;32;20173;-38
2021/06/29 11:29:06;;;;;;;8.60;3.33;;;43.70;29.30;;;;;;4374477;32;20054;-38
2021/06/29 11:31:33;;;;;;;7.55;4.35;;;43.10;29.30;;;;;;4372753;32;20510;-38
2021/06/29 11:34:26;;;;;;;6.82;3.92;;;42.70;29.60;;;;;;4374129;32;20488;-37
2021/06/29 11:36:54;;;;;;;5.70;3.28;;;42.30;29.90;;;;;;4372747;32;20086;-38
2021/06/29 11:39:25;;;;;;;8.30;4.32;;;42.00;30.00;;;;;;4374253;32;20476;-39
2021/06/29 11:42:25;;;;;;;10.82;5.05;;;41.80;30.10;;;;;;4374309;32;20097;-38
2021/06/29 11:44:53;;;;;;;6.75;4.35;;;41.70;30.20;;;;;;4326570;33;20098;-38
2021/06/29 11:47:21;;;;;;;9.60;3.92;;;41.70;30.20;;;;;;4326582;33;20075;-37
2021/06/29 11:49:58;;;;;;;5.68;4.30;;;41.90;30.00;;;;;;4326883;33;20577;-37
2021/06/29 11:52:33;;;;;;;13.80;4.20;;;42.20;29.90;;;;;;4326774;33;20158;-39
2021/06/29 11:55:16;;;;;;;5.62;3.45;;;42.40;29.80;;;;;;4326986;33;20137;-38
2021/06/29 11:57:51;;;;;;;10.50;4.50;;;42.50;29.90;;;;;;4326641;33;20093;-38
2021/06/29 12:00:32;;;;;;;4.50;3.65;;;42.70;29.60;;;;;;4326704;33;20108;-38
2021/06/29 12:03:03;;;;;;;9.35;3.45;;;43.00;29.30;;;;;;4326917;33;20095;-38
2021/06/29 12:05:35;;;;;;;7.90;3.00;;;43.10;29.30;;;;;;4314416;33;20067;-39
2021/06/29 12:08:06;;;;;;;9.23;3.58;;;43.20;29.10;;;;;;4327025;33;20059;-38
2021/06/29 12:10:36;;;;;;;5.93;2.40;;;43.30;29.20;;;;;;4335465;33;20074;-37
2021/06/29 12:13:10;;;;;;;9.93;3.83;;;43.40;28.60;;;;;;4341432;33;20526;-38
2021/06/29 12:15:54;;;;;;;5.40;3.22;;;43.50;28.40;;;;;;4341509;33;20060;-38
2021/06/29 12:18:25;;;;;;;8.05;3.22;;;43.60;28.50;;;;;;4328942;33;20615;-38
2021/06/29 12:21:04;;;;;;;5.43;2.55;;;43.70;28.20;;;;;;4349288;32;20519;-40
2021/06/29 12:23:36;;;;;;;5.45;2.92;;;44.00;28.10;;;;;;4372191;32;20181;-38
2021/06/29 12:26:08;;;;;;;2.72;1.92;;;44.20;27.00;;;;;;4371927;32;20073;-38
2021/06/29 12:28:39;;;;;;;8.57;3.50;;;44.30;26.40;;;;;;4371591;32;20097;-38
2021/06/29 12:31:08;;;;;;;4.03;2.42;;;44.40;26.00;;;;;;4371742;32;20050;-37
2021/06/29 12:33:45;;;;;;;4.53;2.40;;;44.60;26.10;;;;;;4373380;32;20054;-39
2021/06/29 12:36:18;;;;;;;2.95;2.33;;;44.80;26.30;;;;;;4371660;32;20062;-38
2021/06/29 12:39:00;;;;;;;6.93;2.10;;;45.10;25.80;;;;;;4371461;32;20447;-38
2021/06/29 12:41:32;;;;;;;10.68;1.92;;;45.50;25.10;;;;;;4373365;32;20151;-39
2021/06/29 12:44:00;;;;;;;3.53;1.70;;;45.80;24.60;;;;;;4373260;32;20065;-39
2021/06/29 12:46:29;;;;;;;4.20;1.60;;;46.00;24.40;;;;;;4359265;32;20081;-39
2021/06/29 12:49:22;;;;;;;4.07;2.00;;;46.20;24.10;;;;;;4385580;32;20071;-39
2021/06/29 12:52:09;;;;;;;6.60;1.67;;;46.10;23.70;;;;;;4387886;32;20062;-39
2021/06/29 12:54:36;;;;;;;3.65;1.40;;;46.00;23.90;;;;;;4387971;32;20058;-39
2021/06/29 12:57:06;;;;;;;7.93;1.75;;;45.90;23.90;;;;;;4388183;32;20062;-40
2021/06/29 12:59:35;;;;;;;3.55;1.48;;;45.90;23.90;;;;;;4386364;32;20145;-39
2021/06/29 13:02:09;;;;;;;5.80;1.62;;;46.00;24.00;;;;;;4387928;32;20498;-38